createdAt,value
2022-08-18T00:00:06.355Z,68.30
2022-08-18T00:02:40.690Z,68.05
2022-08-18T00:05:12.767Z,66.63
2022-08-18T00:07:47.156Z,67.66
2022-08-18T00:10:18.729Z,68.65
2022-08-18T00:12:47.166Z,69.39
2022-08-18T00:15:16.516Z,69.44
2022-08-18T00:17:45.993Z,69.04
2022-08-18T00:20:19.849Z,69.88
2022-08-18T00:22:48.343Z,70.13
2022-08-18T00:25:17.546Z,71.06
2022-08-18T00:27:45.604Z,70.59
2022-08-18T00:30:16.326Z,71.05
2022-08-18T00:32:49.256Z,70.32
2022-08-18T00:35:21.906Z,68.52
2022-08-18T00:37:50.333Z,68.68
2022-08-18T00:40:20.661Z,69.19
2022-08-18T00:42:51.797Z,68.88
2022-08-18T00:45:23.154Z,67.61
2022-08-18T00:47:53.188Z,69.57
2022-08-18T00:50:24.167Z,68.74
2022-08-18T00:52:58.666Z,69.85
2022-08-18T00:55:29.394Z,70.50
2022-08-18T00:58:02.619Z,70.20
2022-08-18T01:00:31.129Z,70.16
2022-08-18T01:03:02.679Z,71.97
2022-08-18T01:05:34.127Z,71.86
2022-08-18T01:08:02.434Z,71.82
2022-08-18T01:10:34.269Z,72.32
2022-08-18T01:13:02.442Z,71.95
2022-08-18T01:15:30.811Z,72.12
2022-08-18T01:18:28.601Z,71.29
2022-08-18T01:21:22.514Z,71.29
2022-08-18T01:23:53.962Z,72.35
2022-08-18T01:26:22.699Z,71.25
2022-08-18T01:28:51.131Z,71.87
2022-08-18T01:31:38.015Z,70.78
2022-08-18T01:34:07.382Z,70.51
2022-08-18T01:36:37.485Z,71.80
2022-08-18T01:39:09.298Z,72.71
2022-08-18T01:41:37.336Z,71.12
2022-08-18T01:44:05.970Z,69.70
2022-08-18T01:46:35.898Z,69.72
2022-08-18T01:49:05.345Z,72.17
2022-08-18T01:51:39.772Z,71.72
2022-08-18T01:54:12.816Z,70.52
2022-08-18T01:56:42.492Z,71.58
2022-08-18T01:59:14.583Z,72.58
2022-08-18T02:01:48.842Z,72.64
2022-08-18T02:04:35.226Z,73.45
2022-08-18T02:07:06.972Z,73.32
2022-08-18T02:09:37.423Z,72.70
2022-08-18T02:12:07.377Z,72.78
2022-08-18T02:14:35.670Z,73.44
2022-08-18T02:17:05.309Z,73.71
2022-08-18T02:19:34.949Z,74.39
2022-08-18T02:22:03.702Z,72.52
2022-08-18T02:24:31.835Z,72.66
2022-08-18T02:27:01.240Z,73.92
2022-08-18T02:29:29.473Z,74.32
2022-08-18T02:31:57.560Z,74.70
2022-08-18T02:34:25.752Z,74.71
2022-08-18T02:36:54.186Z,74.02
2022-08-18T02:39:22.249Z,74.51
2022-08-18T02:41:50.334Z,73.47
2022-08-18T02:44:19.642Z,73.04
2022-08-18T02:46:47.692Z,73.00
2022-08-18T02:49:15.774Z,72.88
2022-08-18T02:51:45.991Z,72.42
2022-08-18T02:54:14.044Z,73.09
2022-08-18T02:56:42.632Z,72.77
2022-08-18T02:59:13.939Z,72.98
2022-08-18T03:01:45.612Z,73.32
2022-08-18T03:04:16.199Z,75.10
2022-08-18T03:06:45.957Z,74.94
2022-08-18T03:09:16.227Z,75.74
2022-08-18T03:11:44.997Z,75.02
2022-08-18T03:14:13.385Z,75.98
2022-08-18T03:16:53.412Z,75.24
2022-08-18T03:19:23.601Z,75.29
2022-08-18T03:21:52.774Z,74.99
2022-08-18T03:24:23.021Z,74.79
2022-08-18T03:26:52.514Z,75.00
2022-08-18T03:29:21.208Z,74.80
2022-08-18T03:31:51.608Z,74.84
2022-08-18T03:34:21.517Z,74.55
2022-08-18T03:36:50.925Z,74.87
2022-08-18T03:39:19.794Z,74.18
2022-08-18T03:41:58.431Z,74.14
2022-08-18T03:44:30.787Z,73.96
2022-08-18T03:47:01.524Z,74.43
2022-08-18T03:49:29.931Z,74.20
2022-08-18T03:52:00.989Z,73.95
2022-08-18T03:54:29.473Z,74.59
2022-08-18T03:56:57.568Z,74.41
2022-08-18T03:59:27.297Z,74.94
2022-08-18T04:01:56.160Z,75.75
2022-08-18T04:04:27.778Z,75.37
2022-08-18T04:06:58.256Z,75.37
2022-08-18T04:09:28.178Z,74.94
2022-08-18T04:11:57.480Z,75.05
2022-08-18T04:14:29.018Z,74.50
2022-08-18T04:16:58.598Z,74.26
2022-08-18T04:19:28.483Z,73.71
2022-08-18T04:21:58.025Z,74.77
2022-08-18T04:24:30.912Z,74.99
2022-08-18T04:27:00.883Z,74.46
2022-08-18T04:29:29.564Z,74.41
2022-08-18T04:31:57.729Z,74.21
2022-08-18T04:34:25.828Z,73.67
2022-08-18T04:36:55.205Z,73.91
2022-08-18T04:39:24.306Z,72.54
2022-08-18T04:41:52.928Z,72.15
2022-08-18T04:44:21.824Z,73.07
2022-08-18T04:46:52.807Z,73.19
2022-08-18T04:49:26.085Z,74.44
2022-08-18T04:52:30.982Z,74.28
2022-08-18T04:55:03.734Z,74.18
2022-08-18T04:57:34.116Z,73.88
2022-08-18T05:00:05.383Z,74.60
2022-08-18T05:02:33.719Z,75.24
2022-08-18T05:05:04.148Z,75.20
2022-08-18T05:07:33.894Z,75.47
2022-08-18T05:10:02.000Z,75.20
2022-08-18T05:12:30.015Z,74.86
2022-08-18T05:14:58.055Z,74.39
2022-08-18T05:17:30.020Z,73.67
2022-08-18T05:20:00.882Z,75.06
2022-08-18T05:22:30.504Z,75.13
2022-08-18T05:25:01.069Z,74.23
2022-08-18T05:27:33.778Z,73.89
2022-08-18T05:30:02.437Z,74.19
2022-08-18T05:32:48.754Z,74.75
2022-08-18T05:35:22.330Z,74.53
2022-08-18T05:37:59.788Z,75.98
2022-08-18T05:40:29.514Z,76.15
2022-08-18T05:42:58.360Z,74.58
2022-08-18T05:45:26.960Z,74.76
2022-08-18T05:48:00.006Z,75.65
2022-08-18T05:50:29.156Z,74.52
2022-08-18T05:52:59.621Z,74.80
2022-08-18T05:55:49.904Z,76.00
2022-08-18T05:58:21.354Z,75.62
2022-08-18T06:00:58.790Z,76.34
2022-08-18T06:03:30.995Z,75.87
2022-08-18T06:06:16.529Z,74.52
2022-08-18T06:08:48.272Z,74.93
2022-08-18T06:11:22.224Z,76.18
2022-08-18T06:13:51.695Z,75.75
2022-08-18T06:16:36.151Z,75.57
2022-08-18T06:19:18.029Z,76.83
2022-08-18T06:21:51.171Z,76.67
2022-08-18T06:24:24.965Z,75.73
2022-08-18T06:27:03.523Z,75.70
2022-08-18T06:29:47.365Z,75.76
2022-08-18T06:32:26.483Z,75.74
2022-08-18T06:35:04.986Z,74.56
2022-08-18T06:37:56.111Z,73.52
2022-08-18T06:40:24.693Z,74.70
2022-08-18T06:42:54.017Z,74.29
2022-08-18T06:45:33.848Z,74.51
2022-08-18T06:48:15.078Z,73.36
2022-08-18T06:50:51.675Z,73.73
2022-08-18T06:53:27.597Z,73.32
2022-08-18T06:55:56.699Z,74.50
2022-08-18T06:58:31.299Z,74.88
2022-08-18T07:01:02.828Z,74.69
2022-08-18T07:03:45.011Z,74.60
2022-08-18T07:06:27.599Z,74.35
2022-08-18T07:08:57.558Z,73.63
2022-08-18T07:11:27.732Z,72.86
2022-08-18T07:14:15.454Z,73.11
2022-08-18T07:16:58.345Z,72.49
2022-08-18T07:19:29.841Z,73.70
2022-08-18T07:22:03.542Z,73.64
2022-08-18T07:24:33.963Z,73.28
2022-08-18T07:27:04.423Z,73.33
2022-08-18T07:29:36.528Z,72.70
2022-08-18T07:32:21.115Z,72.12
2022-08-18T07:34:53.706Z,71.76
2022-08-18T07:37:28.605Z,72.84
2022-08-18T07:40:01.603Z,71.83
2022-08-18T07:43:00.763Z,72.38
2022-08-18T07:45:29.736Z,71.73
2022-08-18T07:48:10.901Z,70.62
2022-08-18T07:50:58.194Z,71.16
2022-08-18T07:53:36.893Z,69.98
2022-08-18T07:56:08.924Z,70.70
2022-08-18T07:58:42.551Z,70.41
2022-08-18T08:01:17.135Z,70.72
2022-08-18T08:03:50.272Z,69.76
2022-08-18T08:06:21.709Z,69.57
2022-08-18T08:08:58.980Z,68.96
2022-08-18T08:11:35.568Z,67.59
2022-08-18T08:14:16.079Z,68.05
2022-08-18T08:16:48.626Z,65.50
2022-08-18T08:19:58.774Z,66.31
2022-08-18T08:22:25.490Z,66.50
2022-08-18T08:25:00.263Z,66.36
2022-08-18T08:27:35.522Z,65.03
2022-08-18T08:30:09.678Z,64.92
2022-08-18T08:32:45.588Z,64.64
2022-08-18T08:35:48.818Z,63.69
2022-08-18T08:38:29.469Z,63.04
2022-08-18T08:41:00.118Z,63.59
2022-08-18T08:43:32.486Z,63.30
2022-08-18T08:46:06.954Z,63.31
2022-08-18T08:48:42.324Z,62.65
2022-08-18T08:51:19.672Z,61.80
2022-08-18T08:53:51.228Z,60.98
2022-08-18T08:56:22.055Z,60.46
2022-08-18T08:58:53.384Z,60.91
2022-08-18T09:01:29.148Z,59.34
2022-08-18T09:04:04.527Z,60.00
2022-08-18T09:06:41.244Z,60.67
2022-08-18T09:09:20.638Z,60.33
2022-08-18T09:12:13.391Z,58.62
2022-08-18T09:15:14.779Z,60.22
2022-08-18T09:17:56.575Z,60.09
2022-08-18T09:20:54.769Z,59.74
2022-08-18T09:23:26.795Z,59.36
2022-08-18T09:25:56.217Z,59.08
2022-08-18T09:28:56.577Z,57.97
2022-08-18T09:31:25.476Z,58.08
2022-08-18T09:34:25.862Z,57.62
2022-08-18T09:37:04.078Z,59.06
2022-08-18T09:39:54.681Z,58.48
2022-08-18T09:42:31.861Z,58.23
2022-08-18T09:45:08.423Z,58.19
2022-08-18T09:48:25.169Z,58.87
2022-08-18T09:51:20.751Z,57.89
2022-08-18T09:54:14.640Z,58.01
2022-08-18T09:57:22.951Z,57.77
2022-08-18T10:00:19.803Z,57.14
2022-08-18T10:03:25.845Z,56.39
2022-08-18T10:06:16.363Z,55.45
2022-08-18T10:09:17.781Z,56.46
2022-08-18T10:12:15.688Z,56.86
2022-08-18T10:15:04.547Z,57.54
2022-08-18T10:17:45.541Z,56.68
2022-08-18T10:20:34.089Z,56.41
2022-08-18T10:23:02.179Z,57.24
2022-08-18T10:25:39.535Z,56.79
2022-08-18T10:28:12.817Z,56.63
2022-08-18T10:31:13.525Z,55.97
2022-08-18T10:34:17.068Z,55.97
2022-08-18T10:36:50.063Z,56.30
2022-08-18T10:39:21.029Z,55.38
2022-08-18T10:41:57.986Z,55.54
2022-08-18T10:44:29.640Z,54.27
2022-08-18T10:47:00.313Z,56.05
2022-08-18T10:49:32.012Z,55.25
2022-08-18T10:52:33.992Z,54.08
2022-08-18T10:55:25.382Z,54.48
2022-08-18T10:58:40.659Z,54.21
2022-08-18T11:01:21.992Z,53.41
2022-08-18T11:04:14.425Z,53.38
2022-08-18T11:07:03.644Z,51.85
2022-08-18T11:09:36.932Z,51.94
2022-08-18T11:12:12.704Z,49.85
2022-08-18T11:15:22.896Z,50.50
2022-08-18T11:18:10.694Z,51.10
2022-08-18T11:20:39.572Z,51.83
2022-08-18T11:23:15.431Z,51.59
2022-08-18T11:25:44.892Z,49.43
2022-08-18T11:28:18.251Z,49.44
2022-08-18T11:30:50.271Z,49.78
2022-08-18T11:33:22.775Z,50.59
2022-08-18T11:35:53.986Z,49.26
2022-08-18T11:38:23.596Z,50.67
2022-08-18T11:41:12.188Z,49.62
2022-08-18T11:43:43.116Z,51.38
2022-08-18T11:46:17.458Z,50.71
2022-08-18T11:48:54.089Z,47.87
2022-08-18T11:51:24.973Z,49.51
2022-08-18T11:53:58.655Z,49.78
2022-08-18T11:56:31.314Z,49.32
2022-08-18T11:59:01.806Z,48.88
2022-08-18T12:01:40.845Z,48.05
2022-08-18T12:04:23.939Z,48.87
2022-08-18T12:07:00.498Z,47.54
2022-08-18T12:12:30.446Z,47.19
2022-08-18T12:15:11.822Z,48.89
2022-08-18T12:17:43.428Z,48.90
2022-08-18T12:20:22.903Z,48.05
2022-08-18T12:22:51.983Z,49.15
2022-08-18T12:25:25.134Z,48.57
2022-08-18T12:27:54.033Z,48.92
2022-08-18T12:30:22.117Z,47.10
2022-08-18T12:32:55.950Z,47.34
2022-08-18T12:35:35.223Z,46.60
2022-08-18T12:38:12.755Z,47.88
2022-08-18T12:40:43.021Z,48.53
2022-08-18T12:43:11.085Z,48.46
2022-08-18T12:45:39.640Z,47.27
2022-08-18T12:48:10.149Z,48.54
2022-08-18T12:53:57.987Z,45.37
2022-08-18T12:56:21.644Z,46.29
2022-08-18T12:58:49.943Z,46.94
2022-08-18T13:01:18.982Z,47.27
2022-08-18T13:04:03.630Z,45.84
2022-08-18T13:06:40.767Z,44.83
2022-08-18T13:09:16.708Z,44.90
2022-08-18T13:12:00.048Z,45.29
2022-08-18T13:14:28.535Z,44.77
2022-08-18T13:16:56.640Z,45.68
2022-08-18T13:19:24.880Z,46.03
2022-08-18T13:22:01.588Z,44.65
2022-08-18T13:24:31.625Z,43.94
2022-08-18T13:27:00.621Z,44.25
2022-08-18T13:29:28.640Z,45.16
2022-08-18T13:31:59.526Z,44.66
2022-08-18T13:34:29.735Z,43.82
2022-08-18T13:36:58.616Z,43.45
2022-08-18T13:39:33.791Z,43.71
2022-08-18T13:42:26.252Z,44.45
2022-08-18T13:44:53.150Z,43.67
2022-08-18T13:47:22.153Z,44.02
2022-08-18T13:49:58.183Z,44.29
2022-08-18T13:52:34.354Z,43.97
2022-08-18T13:55:08.334Z,44.23
2022-08-18T13:57:41.941Z,44.46
2022-08-18T14:00:20.502Z,43.90
2022-08-18T14:03:02.175Z,44.55
2022-08-18T14:05:36.779Z,44.22
2022-08-18T14:08:20.636Z,43.35
2022-08-18T14:10:52.323Z,44.20
2022-08-18T14:13:24.807Z,44.01
2022-08-18T14:15:55.970Z,44.67
2022-08-18T14:18:28.959Z,45.07
2022-08-18T14:21:17.245Z,44.30
2022-08-18T14:24:10.651Z,44.42
2022-08-18T14:26:51.021Z,44.63
2022-08-18T14:29:47.004Z,44.92
2022-08-18T14:32:08.547Z,46.50
2022-08-18T14:34:36.866Z,46.20
2022-08-18T14:37:05.328Z,46.25
2022-08-18T14:39:38.026Z,45.58
2022-08-18T14:42:08.008Z,46.04
2022-08-18T14:44:40.251Z,45.58
2022-08-18T14:47:09.636Z,45.90
2022-08-18T14:49:43.063Z,46.11
2022-08-18T14:52:16.201Z,46.18
2022-08-18T14:54:46.360Z,45.73
2022-08-18T14:59:51.342Z,45.85
2022-08-18T15:02:20.339Z,44.08
2022-08-18T15:04:53.129Z,45.87
2022-08-18T15:07:25.014Z,46.19
2022-08-18T15:10:14.864Z,44.37
2022-08-18T15:12:44.012Z,44.87
2022-08-18T15:15:15.921Z,43.36
2022-08-18T15:17:50.190Z,44.53
2022-08-18T15:20:28.902Z,45.50
2022-08-18T15:23:24.694Z,46.11
2022-08-18T15:25:57.161Z,45.38
2022-08-18T15:28:28.841Z,45.06
2022-08-18T15:33:51.225Z,44.06
2022-08-18T15:36:28.994Z,46.33
2022-08-18T15:38:58.016Z,46.00
2022-08-18T15:41:31.960Z,43.85
2022-08-18T15:44:02.413Z,44.45
2022-08-18T15:46:34.187Z,45.19
2022-08-18T15:49:05.249Z,44.53
2022-08-18T15:51:40.966Z,43.90
2022-08-18T15:54:11.407Z,43.85
2022-08-18T15:56:39.746Z,44.67
2022-08-18T15:59:12.926Z,45.00
2022-08-18T16:01:43.460Z,44.66
2022-08-18T16:04:15.374Z,45.37
2022-08-18T16:06:47.685Z,45.27
2022-08-18T16:09:17.070Z,45.76
2022-08-18T16:11:45.099Z,46.48
2022-08-18T16:14:15.490Z,45.65
2022-08-18T16:16:43.753Z,44.93
2022-08-18T16:19:11.757Z,44.30
2022-08-18T16:21:40.350Z,45.00
2022-08-18T16:24:09.222Z,45.03
2022-08-18T16:26:37.245Z,45.28
2022-08-18T16:29:05.265Z,45.01
2022-08-18T16:31:34.688Z,44.67
2022-08-18T16:34:02.740Z,45.00
2022-08-18T16:36:30.807Z,45.50
2022-08-18T16:38:58.888Z,45.69
2022-08-18T16:41:27.419Z,45.92
2022-08-18T16:43:56.292Z,46.14
2022-08-18T16:46:26.536Z,46.29
2022-08-18T16:48:56.620Z,46.86
2022-08-18T16:51:26.510Z,48.30
2022-08-18T16:53:55.033Z,48.56
2022-08-18T16:56:24.708Z,49.82
2022-08-18T16:59:10.728Z,50.21
2022-08-18T17:01:56.477Z,52.61
2022-08-18T17:04:29.506Z,51.46
2022-08-18T17:06:58.196Z,51.95
2022-08-18T17:09:26.754Z,53.11
2022-08-18T17:11:55.546Z,52.84
2022-08-18T17:14:25.665Z,52.92
2022-08-18T17:16:55.274Z,53.05
2022-08-18T17:19:26.182Z,52.86
2022-08-18T17:21:54.663Z,53.88
2022-08-18T17:24:31.798Z,53.69
2022-08-18T17:27:20.373Z,53.08
2022-08-18T17:30:02.457Z,53.36
2022-08-18T17:35:15.503Z,53.83
2022-08-18T17:37:49.421Z,54.70
2022-08-18T17:40:21.081Z,54.44
2022-08-18T17:42:51.782Z,54.98
2022-08-18T17:45:21.744Z,54.78
2022-08-18T17:47:54.895Z,54.94
2022-08-18T17:50:44.944Z,55.38
2022-08-18T17:53:13.590Z,54.91
2022-08-18T17:55:47.100Z,56.10
2022-08-18T17:58:20.465Z,54.89
2022-08-18T18:00:48.517Z,54.90
2022-08-18T18:03:16.552Z,54.56
2022-08-18T18:05:51.661Z,54.68
2022-08-18T18:08:20.224Z,55.09
2022-08-18T18:11:04.364Z,55.23
2022-08-18T18:13:34.077Z,54.88
2022-08-18T18:16:06.064Z,54.79
2022-08-18T18:18:41.354Z,54.99
2022-08-18T18:21:21.666Z,55.72
2022-08-18T18:23:53.000Z,55.81
2022-08-18T18:26:28.335Z,57.31
2022-08-18T18:29:14.998Z,58.46
2022-08-18T18:31:45.702Z,58.38
2022-08-18T18:34:23.378Z,60.24
2022-08-18T18:36:59.402Z,59.89
2022-08-18T18:39:33.298Z,59.88
2022-08-18T18:42:15.801Z,59.46
2022-08-18T18:44:52.651Z,61.05
2022-08-18T18:47:35.233Z,60.62
2022-08-18T18:50:08.253Z,60.91
2022-08-18T18:52:44.775Z,62.28
2022-08-18T18:55:17.004Z,62.72
2022-08-18T18:57:49.584Z,64.13
2022-08-18T19:00:23.154Z,63.48
2022-08-18T19:02:59.841Z,63.94
2022-08-18T19:05:35.107Z,65.44
2022-08-18T19:08:19.203Z,66.08
2022-08-18T19:10:54.631Z,65.34
2022-08-18T19:13:33.190Z,65.30
2022-08-18T19:16:09.683Z,65.97
2022-08-18T19:18:57.561Z,66.32
2022-08-18T19:22:03.799Z,66.00
2022-08-18T19:24:37.540Z,66.41
2022-08-18T19:27:05.984Z,66.26
2022-08-18T19:29:39.657Z,66.19
2022-08-18T19:32:16.208Z,65.89
2022-08-18T19:34:51.361Z,67.05
2022-08-18T19:37:27.503Z,67.13
2022-08-18T19:40:07.283Z,67.72
2022-08-18T19:42:41.070Z,67.59
2022-08-18T19:45:16.969Z,67.37
2022-08-18T19:47:51.279Z,66.78
2022-08-18T19:50:26.174Z,67.18
2022-08-18T19:53:12.779Z,67.68
2022-08-18T19:56:04.982Z,67.73
2022-08-18T19:59:15.035Z,68.46
2022-08-18T20:01:52.865Z,68.05
2022-08-18T20:04:36.286Z,67.73
2022-08-18T20:07:16.361Z,67.94
2022-08-18T20:10:05.516Z,68.01
2022-08-18T20:12:56.704Z,68.30
2022-08-18T20:15:27.353Z,68.81
2022-08-18T20:18:08.339Z,69.37
2022-08-18T20:20:39.004Z,68.72
2022-08-18T20:23:31.253Z,69.42
2022-08-18T20:25:59.403Z,68.99
2022-08-18T20:28:41.726Z,69.14
2022-08-18T20:31:14.260Z,69.96
2022-08-18T20:33:47.126Z,70.01
2022-08-18T20:36:25.990Z,69.82
2022-08-18T20:38:55.543Z,69.89
2022-08-18T20:41:38.061Z,70.73
2022-08-18T20:44:53.578Z,70.72
2022-08-18T20:47:44.944Z,70.75
2022-08-18T20:50:44.477Z,71.48
2022-08-18T20:53:49.889Z,70.97
2022-08-18T20:56:31.478Z,70.70
2022-08-18T20:59:08.704Z,70.42
2022-08-18T21:01:39.038Z,71.05
2022-08-18T21:04:07.179Z,70.85
2022-08-18T21:06:38.511Z,71.38
2022-08-18T21:09:06.669Z,72.41
2022-08-18T21:11:42.912Z,71.43
2022-08-18T21:14:12.952Z,72.43
2022-08-18T21:16:45.132Z,71.43
2022-08-18T21:19:23.479Z,72.17
2022-08-18T21:21:54.488Z,72.29
2022-08-18T21:24:32.634Z,71.77
2022-08-18T21:27:04.087Z,71.77
2022-08-18T21:29:47.341Z,70.91
2022-08-18T21:32:21.830Z,72.33
2022-08-18T21:34:50.045Z,72.62
2022-08-18T21:37:19.245Z,73.83
2022-08-18T21:39:49.499Z,73.72
2022-08-18T21:42:21.785Z,73.74
2022-08-18T21:44:54.882Z,73.09
2022-08-18T21:47:26.063Z,73.10
2022-08-18T21:50:03.474Z,72.31
2022-08-18T21:52:32.280Z,71.98
2022-08-18T21:55:03.097Z,71.98
2022-08-18T21:57:50.181Z,73.00
2022-08-18T22:00:23.315Z,72.61
2022-08-18T22:02:53.454Z,73.02
2022-08-18T22:05:30.005Z,73.03
2022-08-18T22:08:20.079Z,72.90
2022-08-18T22:11:36.407Z,73.16
2022-08-18T22:14:32.897Z,73.25
2022-08-18T22:17:32.728Z,73.18
2022-08-18T22:20:38.291Z,73.49
2022-08-18T22:23:41.019Z,72.73
2022-08-18T22:26:12.397Z,73.21
2022-08-18T22:28:47.203Z,73.14
2022-08-18T22:31:20.829Z,74.17
2022-08-18T22:33:49.687Z,75.05
2022-08-18T22:36:20.002Z,74.25
2022-08-18T22:38:49.698Z,73.98
2022-08-18T22:41:18.225Z,74.04
2022-08-18T22:43:46.260Z,74.42
2022-08-18T22:46:24.168Z,73.72
2022-08-18T22:48:53.381Z,74.39
2022-08-18T22:51:23.915Z,74.71
2022-08-18T22:53:53.422Z,74.59
2022-08-18T22:56:33.997Z,74.57
2022-08-18T22:59:12.126Z,75.68
2022-08-18T23:01:46.100Z,74.72
2022-08-18T23:04:15.895Z,74.57
2022-08-18T23:06:48.546Z,74.83
2022-08-18T23:09:17.961Z,74.85
2022-08-18T23:11:46.639Z,75.04
2022-08-18T23:14:14.889Z,75.07
2022-08-18T23:16:45.400Z,74.90
2022-08-18T23:19:14.627Z,74.64
2022-08-18T23:21:43.225Z,75.29
2022-08-18T23:24:13.827Z,74.96
2022-08-18T23:26:43.465Z,74.47
2022-08-18T23:29:12.646Z,74.37
2022-08-18T23:31:43.574Z,75.25
2022-08-18T23:34:13.250Z,74.85
2022-08-18T23:36:45.368Z,75.21
2022-08-18T23:39:14.115Z,74.73
2022-08-18T23:41:43.889Z,75.58
2022-08-18T23:44:13.782Z,76.02
2022-08-18T23:46:44.601Z,75.30
2022-08-18T23:49:14.765Z,75.94
2022-08-18T23:51:45.510Z,76.43
2022-08-18T23:54:15.662Z,75.36
2022-08-18T23:56:45.655Z,75.69
2022-08-18T23:59:14.531Z,76.64
